sensor_id;sensor_type;location;lat;lon;timestamp;temperature;humidity
15630;DHT22;7914;50.842;0.166;2022-09-21T00:01:09;11.50;99.90
15630;DHT22;7914;50.842;0.166;2022-09-21T00:03:36;11.40;99.90
15630;DHT22;7914;50.842;0.166;2022-09-21T00:06:07;11.40;99.90
15630;DHT22;7914;50.842;0.166;2022-09-21T00:08:33;11.30;99.90
15630;DHT22;7914;50.842;0.166;2022-09-21T00:10:59;11.30;99.90
15630;DHT22;7914;50.842;0.166;2022-09-21T00:13:25;11.40;99.90
15630;DHT22;7914;50.842;0.166;2022-09-21T00:15:53;11.30;99.90
15630;DHT22;7914;50.842;0.166;2022-09-21T00:18:20;11.40;99.90
15630;DHT22;7914;50.842;0.166;2022-09-21T00:20:46;11.40;99.90
15630;DHT22;7914;50.842;0.166;2022-09-21T00:23:12;11.40;99.90
15630;DHT22;7914;50.842;0.166;2022-09-21T00:25:37;11.40;99.90
15630;DHT22;7914;50.842;0.166;2022-09-21T00:28:03;11.30;99.90
15630;DHT22;7914;50.842;0.166;2022-09-21T00:30:29;11.30;99.90
15630;DHT22;7914;50.842;0.166;2022-09-21T00:32:54;11.20;99.90
15630;DHT22;7914;50.842;0.166;2022-09-21T00:35:20;11.20;99.90
15630;DHT22;7914;50.842;0.166;2022-09-21T00:37:46;11.20;99.90
15630;DHT22;7914;50.842;0.166;2022-09-21T00:40:12;11.10;99.90
15630;DHT22;7914;50.842;0.166;2022-09-21T00:42:37;11.10;99.90
15630;DHT22;7914;50.842;0.166;2022-09-21T00:45:05;11.00;99.90
15630;DHT22;7914;50.842;0.166;2022-09-21T00:47:41;11.00;99.90
15630;DHT22;7914;50.842;0.166;2022-09-21T00:50:11;10.90;99.90
15630;DHT22;7914;50.842;0.166;2022-09-21T00:52:40;10.90;99.90
15630;DHT22;7914;50.842;0.166;2022-09-21T00:55:11;10.90;99.90
15630;DHT22;7914;50.842;0.166;2022-09-21T00:57:39;10.90;99.90
15630;DHT22;7914;50.842;0.166;2022-09-21T01:00:08;10.80;99.90
15630;DHT22;7914;50.842;0.166;2022-09-21T01:02:36;10.80;99.90
15630;DHT22;7914;50.842;0.166;2022-09-21T01:05:06;10.80;99.90
15630;DHT22;7914;50.842;0.166;2022-09-21T01:07:34;10.80;99.90
15630;DHT22;7914;50.842;0.166;2022-09-21T01:10:05;10.60;99.90
15630;DHT22;7914;50.842;0.166;2022-09-21T01:18:37;10.70;99.90
15630;DHT22;7914;50.842;0.166;2022-09-21T01:23:44;10.60;99.90
15630;DHT22;7914;50.842;0.166;2022-09-21T01:26:56;10.50;99.90
15630;DHT22;7914;50.842;0.166;2022-09-21T01:32:30;10.60;99.90
15630;DHT22;7914;50.842;0.166;2022-09-21T01:35:02;10.70;99.90
15630;DHT22;7914;50.842;0.166;2022-09-21T01:38:04;10.60;99.90
15630;DHT22;7914;50.842;0.166;2022-09-21T01:40:35;10.60;99.90
15630;DHT22;7914;50.842;0.166;2022-09-21T01:43:04;10.60;99.90
15630;DHT22;7914;50.842;0.166;2022-09-21T01:45:34;10.60;99.90
15630;DHT22;7914;50.842;0.166;2022-09-21T01:48:01;10.60;99.90
15630;DHT22;7914;50.842;0.166;2022-09-21T01:50:31;10.50;99.90
15630;DHT22;7914;50.842;0.166;2022-09-21T01:53:06;10.40;99.90
15630;DHT22;7914;50.842;0.166;2022-09-21T01:55:38;10.40;99.90
15630;DHT22;7914;50.842;0.166;2022-09-21T02:01:00;10.30;99.90
15630;DHT22;7914;50.842;0.166;2022-09-21T02:03:38;10.40;99.90
15630;DHT22;7914;50.842;0.166;2022-09-21T02:06:05;10.40;99.90
15630;DHT22;7914;50.842;0.166;2022-09-21T02:08:31;10.40;99.90
15630;DHT22;7914;50.842;0.166;2022-09-21T02:10:59;10.40;99.90
15630;DHT22;7914;50.842;0.166;2022-09-21T02:13:30;10.40;99.90
15630;DHT22;7914;50.842;0.166;2022-09-21T02:20:59;10.20;99.90
15630;DHT22;7914;50.842;0.166;2022-09-21T02:23:49;10.20;99.90
15630;DHT22;7914;50.842;0.166;2022-09-21T02:26:23;10.10;99.90
15630;DHT22;7914;50.842;0.166;2022-09-21T02:28:58;10.10;99.90
15630;DHT22;7914;50.842;0.166;2022-09-21T02:31:48;10.00;99.90
15630;DHT22;7914;50.842;0.166;2022-09-21T02:34:20;9.90;99.90
15630;DHT22;7914;50.842;0.166;2022-09-21T02:37:02;9.90;99.90
15630;DHT22;7914;50.842;0.166;2022-09-21T02:39:41;9.80;99.90
15630;DHT22;7914;50.842;0.166;2022-09-21T02:42:17;9.70;99.90
15630;DHT22;7914;50.842;0.166;2022-09-21T02:50:17;9.80;99.90
15630;DHT22;7914;50.842;0.166;2022-09-21T02:52:44;9.80;99.90
15630;DHT22;7914;50.842;0.166;2022-09-21T02:55:12;9.90;99.90
15630;DHT22;7914;50.842;0.166;2022-09-21T02:57:40;9.90;99.90
15630;DHT22;7914;50.842;0.166;2022-09-21T03:00:07;9.90;99.90
15630;DHT22;7914;50.842;0.166;2022-09-21T03:02:41;9.90;99.90
15630;DHT22;7914;50.842;0.166;2022-09-21T03:05:08;9.90;99.90
15630;DHT22;7914;50.842;0.166;2022-09-21T03:07:34;9.80;99.90
15630;DHT22;7914;50.842;0.166;2022-09-21T03:10:00;9.80;99.90
15630;DHT22;7914;50.842;0.166;2022-09-21T03:12:26;9.80;99.90
15630;DHT22;7914;50.842;0.166;2022-09-21T03:14:52;9.80;99.90
15630;DHT22;7914;50.842;0.166;2022-09-21T03:17:18;9.70;99.90
15630;DHT22;7914;50.842;0.166;2022-09-21T03:19:44;9.70;99.90
15630;DHT22;7914;50.842;0.166;2022-09-21T03:22:10;9.70;99.90
15630;DHT22;7914;50.842;0.166;2022-09-21T03:24:35;9.60;99.90
15630;DHT22;7914;50.842;0.166;2022-09-21T03:27:10;9.50;99.90
15630;DHT22;7914;50.842;0.166;2022-09-21T03:29:36;9.50;99.90
15630;DHT22;7914;50.842;0.166;2022-09-21T03:32:02;9.40;99.90
15630;DHT22;7914;50.842;0.166;2022-09-21T03:34:28;9.40;99.90
15630;DHT22;7914;50.842;0.166;2022-09-21T03:36:59;9.40;99.90
15630;DHT22;7914;50.842;0.166;2022-09-21T03:39:25;9.50;99.90
15630;DHT22;7914;50.842;0.166;2022-09-21T03:41:51;9.50;99.90
15630;DHT22;7914;50.842;0.166;2022-09-21T03:44:17;9.40;99.90
15630;DHT22;7914;50.842;0.166;2022-09-21T03:46:43;9.40;99.90
15630;DHT22;7914;50.842;0.166;2022-09-21T03:49:08;9.40;99.90
15630;DHT22;7914;50.842;0.166;2022-09-21T03:51:34;9.50;99.90
15630;DHT22;7914;50.842;0.166;2022-09-21T03:54:00;9.30;99.90
15630;DHT22;7914;50.842;0.166;2022-09-21T03:56:25;9.20;99.90
15630;DHT22;7914;50.842;0.166;2022-09-21T03:58:51;9.20;99.90
15630;DHT22;7914;50.842;0.166;2022-09-21T04:01:17;9.20;99.90
15630;DHT22;7914;50.842;0.166;2022-09-21T04:03:42;9.20;99.90
15630;DHT22;7914;50.842;0.166;2022-09-21T04:06:09;9.10;99.90
15630;DHT22;7914;50.842;0.166;2022-09-21T04:08:36;9.00;99.90
15630;DHT22;7914;50.842;0.166;2022-09-21T04:11:09;9.00;99.90
15630;DHT22;7914;50.842;0.166;2022-09-21T04:13:34;9.10;99.90
15630;DHT22;7914;50.842;0.166;2022-09-21T04:16:01;9.20;99.90
15630;DHT22;7914;50.842;0.166;2022-09-21T04:18:26;9.30;99.90
15630;DHT22;7914;50.842;0.166;2022-09-21T04:20:52;9.10;99.90
15630;DHT22;7914;50.842;0.166;2022-09-21T04:23:18;9.10;99.90
15630;DHT22;7914;50.842;0.166;2022-09-21T04:25:47;9.00;99.90
15630;DHT22;7914;50.842;0.166;2022-09-21T04:28:13;9.00;99.90
15630;DHT22;7914;50.842;0.166;2022-09-21T04:30:39;8.90;99.90
15630;DHT22;7914;50.842;0.166;2022-09-21T04:33:04;9.00;99.90
15630;DHT22;7914;50.842;0.166;2022-09-21T04:35:30;9.00;99.90
15630;DHT22;7914;50.842;0.166;2022-09-21T04:37:56;9.00;99.90
15630;DHT22;7914;50.842;0.166;2022-09-21T04:40:21;9.00;99.90
15630;DHT22;7914;50.842;0.166;2022-09-21T04:42:51;9.00;99.90
15630;DHT22;7914;50.842;0.166;2022-09-21T04:45:18;9.00;99.90
15630;DHT22;7914;50.842;0.166;2022-09-21T04:47:44;9.10;99.90
15630;DHT22;7914;50.842;0.166;2022-09-21T04:50:10;9.00;99.90
15630;DHT22;7914;50.842;0.166;2022-09-21T04:52:35;8.90;99.90
15630;DHT22;7914;50.842;0.166;2022-09-21T04:55:01;8.80;99.90
15630;DHT22;7914;50.842;0.166;2022-09-21T04:57:27;8.80;99.90
15630;DHT22;7914;50.842;0.166;2022-09-21T04:59:52;8.80;99.90
15630;DHT22;7914;50.842;0.166;2022-09-21T05:02:18;8.80;99.90
15630;DHT22;7914;50.842;0.166;2022-09-21T05:04:44;8.80;99.90
15630;DHT22;7914;50.842;0.166;2022-09-21T05:07:09;8.80;99.90
15630;DHT22;7914;50.842;0.166;2022-09-21T05:09:35;8.70;99.90
15630;DHT22;7914;50.842;0.166;2022-09-21T05:12:19;8.70;99.90
15630;DHT22;7914;50.842;0.166;2022-09-21T05:14:45;8.60;99.90
15630;DHT22;7914;50.842;0.166;2022-09-21T05:17:11;8.60;99.90
15630;DHT22;7914;50.842;0.166;2022-09-21T05:19:37;8.70;99.90
15630;DHT22;7914;50.842;0.166;2022-09-21T05:22:02;8.70;99.90
15630;DHT22;7914;50.842;0.166;2022-09-21T05:24:28;8.60;99.90
15630;DHT22;7914;50.842;0.166;2022-09-21T05:26:54;8.50;99.90
15630;DHT22;7914;50.842;0.166;2022-09-21T05:29:20;8.40;99.90
15630;DHT22;7914;50.842;0.166;2022-09-21T05:34:49;8.60;99.90
15630;DHT22;7914;50.842;0.166;2022-09-21T05:40:14;8.70;99.90
15630;DHT22;7914;50.842;0.166;2022-09-21T05:42:40;8.60;99.90
15630;DHT22;7914;50.842;0.166;2022-09-21T05:45:07;8.70;99.90
15630;DHT22;7914;50.842;0.166;2022-09-21T06:01:37;8.60;99.90
15630;DHT22;7914;50.842;0.166;2022-09-21T06:04:12;8.60;99.90
15630;DHT22;7914;50.842;0.166;2022-09-21T06:06:38;8.60;99.90
15630;DHT22;7914;50.842;0.166;2022-09-21T06:09:04;8.60;99.90
15630;DHT22;7914;50.842;0.166;2022-09-21T06:11:29;8.60;99.90
15630;DHT22;7914;50.842;0.166;2022-09-21T06:13:56;8.70;99.90
15630;DHT22;7914;50.842;0.166;2022-09-21T06:16:21;8.80;99.90
15630;DHT22;7914;50.842;0.166;2022-09-21T06:18:47;8.90;99.90
15630;DHT22;7914;50.842;0.166;2022-09-21T06:21:13;8.90;99.90
15630;DHT22;7914;50.842;0.166;2022-09-21T06:23:38;9.10;99.90
15630;DHT22;7914;50.842;0.166;2022-09-21T06:26:04;9.30;99.90
15630;DHT22;7914;50.842;0.166;2022-09-21T06:28:30;9.30;99.90
15630;DHT22;7914;50.842;0.166;2022-09-21T06:30:56;9.30;99.90
15630;DHT22;7914;50.842;0.166;2022-09-21T06:33:22;9.40;99.90
15630;DHT22;7914;50.842;0.166;2022-09-21T06:35:56;9.40;99.90
15630;DHT22;7914;50.842;0.166;2022-09-21T06:38:23;9.50;99.90
15630;DHT22;7914;50.842;0.166;2022-09-21T06:40:50;9.70;99.90
15630;DHT22;7914;50.842;0.166;2022-09-21T06:43:16;9.90;99.90
15630;DHT22;7914;50.842;0.166;2022-09-21T06:45:42;10.10;99.90
15630;DHT22;7914;50.842;0.166;2022-09-21T06:48:07;10.30;99.90
15630;DHT22;7914;50.842;0.166;2022-09-21T06:50:33;10.30;99.90
15630;DHT22;7914;50.842;0.166;2022-09-21T06:53:00;10.20;99.90
15630;DHT22;7914;50.842;0.166;2022-09-21T06:55:27;10.20;99.90
15630;DHT22;7914;50.842;0.166;2022-09-21T06:58:02;10.30;99.90
15630;DHT22;7914;50.842;0.166;2022-09-21T07:00:28;10.50;99.90
15630;DHT22;7914;50.842;0.166;2022-09-21T07:02:55;10.60;99.90
15630;DHT22;7914;50.842;0.166;2022-09-21T07:05:20;10.80;99.90
15630;DHT22;7914;50.842;0.166;2022-09-21T07:07:46;10.90;99.90
15630;DHT22;7914;50.842;0.166;2022-09-21T07:10:12;11.10;99.90
15630;DHT22;7914;50.842;0.166;2022-09-21T07:12:37;11.20;99.90
15630;DHT22;7914;50.842;0.166;2022-09-21T07:15:04;11.30;99.90
15630;DHT22;7914;50.842;0.166;2022-09-21T07:17:34;11.40;99.90
15630;DHT22;7914;50.842;0.166;2022-09-21T07:20:01;11.60;99.90
15630;DHT22;7914;50.842;0.166;2022-09-21T07:22:32;11.70;99.90
15630;DHT22;7914;50.842;0.166;2022-09-21T07:24:57;11.70;99.90
15630;DHT22;7914;50.842;0.166;2022-09-21T07:27:24;11.80;99.90
15630;DHT22;7914;50.842;0.166;2022-09-21T07:29:50;11.90;99.90
15630;DHT22;7914;50.842;0.166;2022-09-21T07:32:16;12.00;99.90
15630;DHT22;7914;50.842;0.166;2022-09-21T07:34:42;12.10;99.90
15630;DHT22;7914;50.842;0.166;2022-09-21T07:37:09;12.20;99.90
15630;DHT22;7914;50.842;0.166;2022-09-21T07:39:34;12.30;99.90
15630;DHT22;7914;50.842;0.166;2022-09-21T07:42:00;12.30;99.90
15630;DHT22;7914;50.842;0.166;2022-09-21T07:44:26;12.40;99.90
15630;DHT22;7914;50.842;0.166;2022-09-21T07:46:52;12.50;99.90
15630;DHT22;7914;50.842;0.166;2022-09-21T07:49:17;12.50;99.90
15630;DHT22;7914;50.842;0.166;2022-09-21T07:51:43;12.70;99.90
15630;DHT22;7914;50.842;0.166;2022-09-21T07:54:09;12.70;99.90
15630;DHT22;7914;50.842;0.166;2022-09-21T07:56:36;12.90;99.90
15630;DHT22;7914;50.842;0.166;2022-09-21T07:59:03;13.00;99.90
15630;DHT22;7914;50.842;0.166;2022-09-21T08:01:36;13.10;99.90
15630;DHT22;7914;50.842;0.166;2022-09-21T08:04:03;13.20;99.90
15630;DHT22;7914;50.842;0.166;2022-09-21T08:06:30;13.20;99.90
15630;DHT22;7914;50.842;0.166;2022-09-21T08:08:58;13.40;99.90
15630;DHT22;7914;50.842;0.166;2022-09-21T08:11:25;13.50;99.90
15630;DHT22;7914;50.842;0.166;2022-09-21T08:13:53;13.70;99.90
15630;DHT22;7914;50.842;0.166;2022-09-21T08:16:19;13.80;99.90
15630;DHT22;7914;50.842;0.166;2022-09-21T08:18:45;14.00;99.90
15630;DHT22;7914;50.842;0.166;2022-09-21T08:21:12;14.20;99.90
15630;DHT22;7914;50.842;0.166;2022-09-21T08:23:38;14.40;99.90
15630;DHT22;7914;50.842;0.166;2022-09-21T08:26:10;14.50;99.90
15630;DHT22;7914;50.842;0.166;2022-09-21T08:28:38;14.70;99.90
15630;DHT22;7914;50.842;0.166;2022-09-21T08:31:06;14.90;99.90
15630;DHT22;7914;50.842;0.166;2022-09-21T08:33:33;15.10;99.90
15630;DHT22;7914;50.842;0.166;2022-09-21T08:35:59;15.30;99.90
15630;DHT22;7914;50.842;0.166;2022-09-21T08:38:26;15.30;99.90
15630;DHT22;7914;50.842;0.166;2022-09-21T08:40:52;15.40;99.90
15630;DHT22;7914;50.842;0.166;2022-09-21T08:43:34;15.50;99.90
15630;DHT22;7914;50.842;0.166;2022-09-21T08:46:05;15.50;99.90
15630;DHT22;7914;50.842;0.166;2022-09-21T08:48:38;15.90;99.90
15630;DHT22;7914;50.842;0.166;2022-09-21T08:51:09;15.90;99.90
15630;DHT22;7914;50.842;0.166;2022-09-21T08:53:44;16.10;99.90
15630;DHT22;7914;50.842;0.166;2022-09-21T08:56:12;16.20;99.90
15630;DHT22;7914;50.842;0.166;2022-09-21T08:58:39;16.40;99.90
15630;DHT22;7914;50.842;0.166;2022-09-21T09:06:43;16.70;99.90
15630;DHT22;7914;50.842;0.166;2022-09-21T09:09:37;16.70;99.90
15630;DHT22;7914;50.842;0.166;2022-09-21T09:18:17;17.20;87.30
15630;DHT22;7914;50.842;0.166;2022-09-21T09:20:56;17.30;90.40
15630;DHT22;7914;50.842;0.166;2022-09-21T09:23:31;17.60;96.00
15630;DHT22;7914;50.842;0.166;2022-09-21T09:26:03;17.70;90.00
15630;DHT22;7914;50.842;0.166;2022-09-21T09:28:50;17.80;51.20
15630;DHT22;7914;50.842;0.166;2022-09-21T09:31:35;18.00;75.90
15630;DHT22;7914;50.842;0.166;2022-09-21T09:34:14;18.20;56.20
15630;DHT22;7914;50.842;0.166;2022-09-21T09:36:45;18.30;1.80
15630;DHT22;7914;50.842;0.166;2022-09-21T09:39:13;18.20;1.00
15630;DHT22;7914;50.842;0.166;2022-09-21T09:44:26;18.40;1.00
15630;DHT22;7914;50.842;0.166;2022-09-21T09:51:52;18.80;1.00
15630;DHT22;7914;50.842;0.166;2022-09-21T09:54:20;18.90;1.00
15630;DHT22;7914;50.842;0.166;2022-09-21T09:56:47;19.10;1.00
15630;DHT22;7914;50.842;0.166;2022-09-21T09:59:28;19.10;1.00
15630;DHT22;7914;50.842;0.166;2022-09-21T10:02:06;19.20;1.00
15630;DHT22;7914;50.842;0.166;2022-09-21T10:04:32;19.30;1.00
15630;DHT22;7914;50.842;0.166;2022-09-21T10:07:01;19.30;1.00
15630;DHT22;7914;50.842;0.166;2022-09-21T10:09:32;19.50;1.00
15630;DHT22;7914;50.842;0.166;2022-09-21T10:12:14;19.60;1.00
15630;DHT22;7914;50.842;0.166;2022-09-21T10:14:48;19.70;1.00
15630;DHT22;7914;50.842;0.166;2022-09-21T10:17:16;19.60;1.00
15630;DHT22;7914;50.842;0.166;2022-09-21T10:19:43;19.70;1.00
15630;DHT22;7914;50.842;0.166;2022-09-21T10:22:15;19.80;1.00
15630;DHT22;7914;50.842;0.166;2022-09-21T10:24:48;19.80;1.00
15630;DHT22;7914;50.842;0.166;2022-09-21T10:27:24;19.60;1.00
15630;DHT22;7914;50.842;0.166;2022-09-21T10:29:50;19.70;1.00
15630;DHT22;7914;50.842;0.166;2022-09-21T10:32:21;19.80;1.00
15630;DHT22;7914;50.842;0.166;2022-09-21T10:37:44;19.60;1.00
15630;DHT22;7914;50.842;0.166;2022-09-21T10:42:42;19.50;1.00
15630;DHT22;7914;50.842;0.166;2022-09-21T10:45:23;19.50;1.00
15630;DHT22;7914;50.842;0.166;2022-09-21T10:47:55;19.70;1.00
15630;DHT22;7914;50.842;0.166;2022-09-21T10:50:27;19.60;1.00
15630;DHT22;7914;50.842;0.166;2022-09-21T10:56:22;19.60;1.00
15630;DHT22;7914;50.842;0.166;2022-09-21T10:58:23;19.60;1.00
15630;DHT22;7914;50.842;0.166;2022-09-21T11:00:50;19.70;1.00
15630;DHT22;7914;50.842;0.166;2022-09-21T11:06:03;19.90;1.00
15630;DHT22;7914;50.842;0.166;2022-09-21T11:11:02;20.10;1.00
15630;DHT22;7914;50.842;0.166;2022-09-21T11:13:37;20.30;1.00
15630;DHT22;7914;50.842;0.166;2022-09-21T11:16:21;20.20;1.00
15630;DHT22;7914;50.842;0.166;2022-09-21T11:19:19;20.30;1.00
15630;DHT22;7914;50.842;0.166;2022-09-21T11:24:51;20.70;1.00
15630;DHT22;7914;50.842;0.166;2022-09-21T11:27:29;20.70;1.00
15630;DHT22;7914;50.842;0.166;2022-09-21T11:30:12;20.80;1.00
15630;DHT22;7914;50.842;0.166;2022-09-21T11:33:05;20.90;1.00
15630;DHT22;7914;50.842;0.166;2022-09-21T11:35:44;20.90;1.00
15630;DHT22;7914;50.842;0.166;2022-09-21T11:44:43;21.20;1.00
15630;DHT22;7914;50.842;0.166;2022-09-21T11:54:59;21.40;1.00
15630;DHT22;7914;50.842;0.166;2022-09-21T11:58:08;21.30;1.00
15630;DHT22;7914;50.842;0.166;2022-09-21T12:22:41;19.20;1.00
15630;DHT22;7914;50.842;0.166;2022-09-21T12:30:14;19.00;1.00
15630;DHT22;7914;50.842;0.166;2022-09-21T12:35:19;18.80;1.00
15630;DHT22;7914;50.842;0.166;2022-09-21T12:40:42;18.70;1.00
15630;DHT22;7914;50.842;0.166;2022-09-21T12:43:40;18.70;1.00
15630;DHT22;7914;50.842;0.166;2022-09-21T12:46:20;18.70;1.00
15630;DHT22;7914;50.842;0.166;2022-09-21T12:48:48;18.80;1.00
15630;DHT22;7914;50.842;0.166;2022-09-21T12:51:33;18.90;1.00
15630;DHT22;7914;50.842;0.166;2022-09-21T12:57:04;19.00;1.00
15630;DHT22;7914;50.842;0.166;2022-09-21T13:00:09;18.90;1.00
15630;DHT22;7914;50.842;0.166;2022-09-21T13:05:29;19.30;1.00
15630;DHT22;7914;50.842;0.166;2022-09-21T13:08:11;19.20;1.00
15630;DHT22;7914;50.842;0.166;2022-09-21T13:11:00;19.40;1.00
15630;DHT22;7914;50.842;0.166;2022-09-21T13:13:36;19.40;1.00
15630;DHT22;7914;50.842;0.166;2022-09-21T13:16:04;19.40;1.00
15630;DHT22;7914;50.842;0.166;2022-09-21T13:18:32;19.40;1.00
15630;DHT22;7914;50.842;0.166;2022-09-21T13:21:00;19.50;1.00
15630;DHT22;7914;50.842;0.166;2022-09-21T13:23:29;19.40;1.00
15630;DHT22;7914;50.842;0.166;2022-09-21T13:26:02;19.50;1.00
15630;DHT22;7914;50.842;0.166;2022-09-21T13:33:40;19.60;1.00
15630;DHT22;7914;50.842;0.166;2022-09-21T13:36:35;19.60;1.00
15630;DHT22;7914;50.842;0.166;2022-09-21T13:41:33;19.60;1.00
15630;DHT22;7914;50.842;0.166;2022-09-21T13:47:00;19.50;1.00
15630;DHT22;7914;50.842;0.166;2022-09-21T13:49:33;19.40;1.00
15630;DHT22;7914;50.842;0.166;2022-09-21T13:52:37;19.40;1.00
15630;DHT22;7914;50.842;0.166;2022-09-21T13:55:14;19.40;1.00
15630;DHT22;7914;50.842;0.166;2022-09-21T13:57:48;19.40;1.00
15630;DHT22;7914;50.842;0.166;2022-09-21T14:05:47;19.40;1.00
15630;DHT22;7914;50.842;0.166;2022-09-21T14:10:46;19.30;1.00
15630;DHT22;7914;50.842;0.166;2022-09-21T14:13:47;19.20;1.00
15630;DHT22;7914;50.842;0.166;2022-09-21T14:19:03;19.10;1.00
15630;DHT22;7914;50.842;0.166;2022-09-21T14:21:28;19.10;1.00
15630;DHT22;7914;50.842;0.166;2022-09-21T14:26:33;19.20;1.00
15630;DHT22;7914;50.842;0.166;2022-09-21T14:31:53;19.20;1.00
15630;DHT22;7914;50.842;0.166;2022-09-21T14:34:23;19.30;1.00
15630;DHT22;7914;50.842;0.166;2022-09-21T14:36:54;19.40;1.00
15630;DHT22;7914;50.842;0.166;2022-09-21T14:39:27;19.40;1.00
15630;DHT22;7914;50.842;0.166;2022-09-21T14:41:56;19.40;1.00
15630;DHT22;7914;50.842;0.166;2022-09-21T14:44:27;19.50;1.00
15630;DHT22;7914;50.842;0.166;2022-09-21T14:58:06;19.30;1.00
15630;DHT22;7914;50.842;0.166;2022-09-21T15:00:43;19.30;1.00
15630;DHT22;7914;50.842;0.166;2022-09-21T15:06:28;19.10;1.00
15630;DHT22;7914;50.842;0.166;2022-09-21T15:12:30;19.10;1.00
15630;DHT22;7914;50.842;0.166;2022-09-21T15:17:50;19.00;1.00
15630;DHT22;7914;50.842;0.166;2022-09-21T15:20:21;18.90;1.00
15630;DHT22;7914;50.842;0.166;2022-09-21T15:22:54;18.90;1.00
15630;DHT22;7914;50.842;0.166;2022-09-21T15:25:21;18.90;1.00
15630;DHT22;7914;50.842;0.166;2022-09-21T15:27:48;18.80;1.00
15630;DHT22;7914;50.842;0.166;2022-09-21T15:30:27;18.80;1.00
15630;DHT22;7914;50.842;0.166;2022-09-21T15:32:55;18.70;1.00
15630;DHT22;7914;50.842;0.166;2022-09-21T15:35:24;18.60;1.00
15630;DHT22;7914;50.842;0.166;2022-09-21T15:37:52;18.50;1.00
15630;DHT22;7914;50.842;0.166;2022-09-21T15:40:29;18.40;1.00
15630;DHT22;7914;50.842;0.166;2022-09-21T15:45:49;18.50;1.00
15630;DHT22;7914;50.842;0.166;2022-09-21T15:48:44;18.30;1.00
15630;DHT22;7914;50.842;0.166;2022-09-21T15:51:19;18.30;1.00
15630;DHT22;7914;50.842;0.166;2022-09-21T15:54:00;18.40;1.00
15630;DHT22;7914;50.842;0.166;2022-09-21T15:56:30;18.30;1.00
15630;DHT22;7914;50.842;0.166;2022-09-21T15:59:01;18.30;1.00
15630;DHT22;7914;50.842;0.166;2022-09-21T16:01:42;18.30;1.00
15630;DHT22;7914;50.842;0.166;2022-09-21T16:04:15;18.30;1.00
15630;DHT22;7914;50.842;0.166;2022-09-21T16:07:05;18.40;1.00
15630;DHT22;7914;50.842;0.166;2022-09-21T16:09:35;18.40;1.00
15630;DHT22;7914;50.842;0.166;2022-09-21T16:14:48;18.20;1.00
15630;DHT22;7914;50.842;0.166;2022-09-21T16:17:27;18.10;1.00
15630;DHT22;7914;50.842;0.166;2022-09-21T16:22:28;18.00;9.90
15630;DHT22;7914;50.842;0.166;2022-09-21T16:24:59;18.00;20.30
15630;DHT22;7914;50.842;0.166;2022-09-21T16:27:28;18.00;32.40
15630;DHT22;7914;50.842;0.166;2022-09-21T16:29:55;17.90;27.90
15630;DHT22;7914;50.842;0.166;2022-09-21T16:32:29;18.00;25.00
15630;DHT22;7914;50.842;0.166;2022-09-21T16:35:22;18.00;19.60
15630;DHT22;7914;50.842;0.166;2022-09-21T16:37:59;18.00;12.50
15630;DHT22;7914;50.842;0.166;2022-09-21T16:40:26;18.00;32.10
15630;DHT22;7914;50.842;0.166;2022-09-21T16:42:53;17.90;14.20
15630;DHT22;7914;50.842;0.166;2022-09-21T16:45:25;17.90;24.90
15630;DHT22;7914;50.842;0.166;2022-09-21T16:47:51;17.90;5.90
15630;DHT22;7914;50.842;0.166;2022-09-21T16:50:18;17.90;13.40
15630;DHT22;7914;50.842;0.166;2022-09-21T16:52:44;17.90;10.80
15630;DHT22;7914;50.842;0.166;2022-09-21T16:55:18;17.80;17.70
15630;DHT22;7914;50.842;0.166;2022-09-21T16:57:43;17.70;22.40
15630;DHT22;7914;50.842;0.166;2022-09-21T17:00:11;17.70;39.00
15630;DHT22;7914;50.842;0.166;2022-09-21T17:02:37;17.70;38.00
15630;DHT22;7914;50.842;0.166;2022-09-21T17:05:08;17.50;56.30
15630;DHT22;7914;50.842;0.166;2022-09-21T17:07:34;17.50;93.80
15630;DHT22;7914;50.842;0.166;2022-09-21T17:10:00;17.50;96.00
15630;DHT22;7914;50.842;0.166;2022-09-21T17:12:26;17.30;99.90
15630;DHT22;7914;50.842;0.166;2022-09-21T17:14:52;17.20;99.90
15630;DHT22;7914;50.842;0.166;2022-09-21T17:17:23;17.20;99.90
15630;DHT22;7914;50.842;0.166;2022-09-21T17:19:50;17.20;99.90
15630;DHT22;7914;50.842;0.166;2022-09-21T17:22:16;17.20;99.90
15630;DHT22;7914;50.842;0.166;2022-09-21T17:24:47;17.20;99.90
15630;DHT22;7914;50.842;0.166;2022-09-21T17:27:14;17.10;99.90
15630;DHT22;7914;50.842;0.166;2022-09-21T17:29:43;17.00;99.90
15630;DHT22;7914;50.842;0.166;2022-09-21T17:32:17;17.00;99.90
15630;DHT22;7914;50.842;0.166;2022-09-21T17:34:45;16.90;99.90
15630;DHT22;7914;50.842;0.166;2022-09-21T17:37:11;16.90;99.90
15630;DHT22;7914;50.842;0.166;2022-09-21T17:39:37;16.80;99.90
15630;DHT22;7914;50.842;0.166;2022-09-21T17:42:19;16.70;99.90
15630;DHT22;7914;50.842;0.166;2022-09-21T17:47:22;16.50;99.90
15630;DHT22;7914;50.842;0.166;2022-09-21T17:49:50;16.50;99.90
15630;DHT22;7914;50.842;0.166;2022-09-21T17:52:18;16.40;99.90
15630;DHT22;7914;50.842;0.166;2022-09-21T17:55:04;16.40;99.90
15630;DHT22;7914;50.842;0.166;2022-09-21T17:57:45;16.40;99.90
15630;DHT22;7914;50.842;0.166;2022-09-21T18:00:22;16.30;99.90
15630;DHT22;7914;50.842;0.166;2022-09-21T18:02:49;16.20;99.90
15630;DHT22;7914;50.842;0.166;2022-09-21T18:05:27;16.10;99.90
15630;DHT22;7914;50.842;0.166;2022-09-21T18:07:53;16.00;99.90
15630;DHT22;7914;50.842;0.166;2022-09-21T18:10:20;15.90;99.90
15630;DHT22;7914;50.842;0.166;2022-09-21T18:13:08;15.90;99.90
15630;DHT22;7914;50.842;0.166;2022-09-21T18:16:07;15.90;99.90
15630;DHT22;7914;50.842;0.166;2022-09-21T18:21:19;15.90;99.90
15630;DHT22;7914;50.842;0.166;2022-09-21T18:26:33;15.90;99.90
15630;DHT22;7914;50.842;0.166;2022-09-21T18:28:59;15.80;99.90
15630;DHT22;7914;50.842;0.166;2022-09-21T18:34:26;15.80;99.90
15630;DHT22;7914;50.842;0.166;2022-09-21T18:39:53;15.70;99.90
15630;DHT22;7914;50.842;0.166;2022-09-21T18:42:48;15.60;99.90
15630;DHT22;7914;50.842;0.166;2022-09-21T18:53:56;15.40;99.90
15630;DHT22;7914;50.842;0.166;2022-09-21T18:56:24;15.40;99.90
15630;DHT22;7914;50.842;0.166;2022-09-21T18:58:50;15.50;99.90
15630;DHT22;7914;50.842;0.166;2022-09-21T19:01:16;15.50;99.90
15630;DHT22;7914;50.842;0.166;2022-09-21T19:03:44;15.50;99.90
15630;DHT22;7914;50.842;0.166;2022-09-21T19:12:01;15.50;99.90
15630;DHT22;7914;50.842;0.166;2022-09-21T19:17:55;15.60;99.90
15630;DHT22;7914;50.842;0.166;2022-09-21T19:20:25;15.50;99.90
15630;DHT22;7914;50.842;0.166;2022-09-21T19:28:03;15.50;99.90
15630;DHT22;7914;50.842;0.166;2022-09-21T19:30:35;15.50;99.90
15630;DHT22;7914;50.842;0.166;2022-09-21T19:33:14;15.40;99.90
15630;DHT22;7914;50.842;0.166;2022-09-21T19:35:42;15.40;99.90
15630;DHT22;7914;50.842;0.166;2022-09-21T19:38:08;15.40;99.90
15630;DHT22;7914;50.842;0.166;2022-09-21T19:40:36;15.40;99.90
15630;DHT22;7914;50.842;0.166;2022-09-21T19:48:41;15.50;99.90
15630;DHT22;7914;50.842;0.166;2022-09-21T19:51:17;15.50;99.90
15630;DHT22;7914;50.842;0.166;2022-09-21T19:53:54;15.50;99.90
15630;DHT22;7914;50.842;0.166;2022-09-21T19:56:46;15.50;99.90
15630;DHT22;7914;50.842;0.166;2022-09-21T19:59:31;15.30;99.90
15630;DHT22;7914;50.842;0.166;2022-09-21T20:02:28;15.30;99.90
15630;DHT22;7914;50.842;0.166;2022-09-21T20:05:02;15.20;99.90
15630;DHT22;7914;50.842;0.166;2022-09-21T20:07:42;15.30;99.90
15630;DHT22;7914;50.842;0.166;2022-09-21T20:13:16;15.20;99.90